createdAt,value
2018-06-16T00:00:55.313Z,18.60
2018-06-16T00:03:22.973Z,18.50
2018-06-16T00:05:50.592Z,18.60
2018-06-16T00:08:18.157Z,18.60
2018-06-16T00:10:46.022Z,18.50
2018-06-16T00:13:13.636Z,18.40
2018-06-16T00:15:41.242Z,18.50
2018-06-16T00:18:08.858Z,18.40
2018-06-16T00:20:36.465Z,18.30
2018-06-16T00:23:04.145Z,18.30
2018-06-16T00:27:59.420Z,18.30
2018-06-16T00:30:27.066Z,18.30
2018-06-16T00:32:54.705Z,18.30
2018-06-16T00:35:22.877Z,18.30
2018-06-16T00:37:50.559Z,18.30
2018-06-16T00:40:18.169Z,18.30
2018-06-16T00:42:46.654Z,18.30
2018-06-16T00:45:14.344Z,18.30
2018-06-16T00:47:42.221Z,18.20
2018-06-16T00:50:09.788Z,18.30
2018-06-16T00:52:37.373Z,18.30
2018-06-16T00:55:05.329Z,18.20
2018-06-16T00:57:44.216Z,18.20
2018-06-16T01:00:11.820Z,18.20
2018-06-16T01:02:39.942Z,18.30
2018-06-16T01:05:07.633Z,18.30
2018-06-16T01:07:36.381Z,18.40
2018-06-16T01:10:04.308Z,18.40
2018-06-16T01:12:31.899Z,18.40
2018-06-16T01:14:59.483Z,18.40
2018-06-16T01:17:27.059Z,18.40
2018-06-16T01:19:54.762Z,18.50
2018-06-16T01:22:22.318Z,18.40
2018-06-16T01:24:49.958Z,18.30
2018-06-16T01:27:17.540Z,18.20
2018-06-16T01:29:45.170Z,18.10
2018-06-16T01:34:40.496Z,18.00
2018-06-16T01:37:08.148Z,18.00
2018-06-16T01:39:36.056Z,18.00
2018-06-16T01:42:03.720Z,17.90
2018-06-16T01:44:31.328Z,17.90
2018-06-16T01:46:58.941Z,17.90
2018-06-16T01:49:26.549Z,17.90
2018-06-16T01:51:54.141Z,17.90
2018-06-16T01:54:21.765Z,17.90
2018-06-16T01:56:49.358Z,17.80
2018-06-16T01:59:16.954Z,17.70
2018-06-16T02:01:44.528Z,17.80
2018-06-16T02:04:12.161Z,17.70
2018-06-16T02:06:40.285Z,17.70
2018-06-16T02:09:09.941Z,17.70
2018-06-16T02:11:37.861Z,17.70
2018-06-16T02:14:05.571Z,17.70
2018-06-16T02:16:33.211Z,17.70
2018-06-16T02:19:00.809Z,17.70
2018-06-16T02:21:28.397Z,17.60
2018-06-16T02:23:56.007Z,17.70
2018-06-16T02:26:23.568Z,17.70
2018-06-16T02:28:51.162Z,17.60
2018-06-16T02:31:18.758Z,17.70
2018-06-16T02:33:46.331Z,17.60
2018-06-16T02:36:14.017Z,17.50
2018-06-16T02:38:41.686Z,17.40
2018-06-16T02:41:09.378Z,17.50
2018-06-16T02:43:36.977Z,17.50
2018-06-16T02:46:04.640Z,17.40
2018-06-16T02:48:32.253Z,17.40
2018-06-16T02:50:59.846Z,17.40
2018-06-16T02:53:27.411Z,17.40
2018-06-16T02:55:55.040Z,17.40
2018-06-16T02:58:22.701Z,17.50
2018-06-16T03:00:50.285Z,17.50
2018-06-16T03:03:17.957Z,17.50
2018-06-16T03:05:45.819Z,17.40
2018-06-16T03:08:13.345Z,17.40
2018-06-16T03:10:40.973Z,17.50
2018-06-16T03:13:08.641Z,17.50
2018-06-16T03:15:36.171Z,17.50
2018-06-16T03:18:03.993Z,17.60
2018-06-16T03:20:38.564Z,17.60
2018-06-16T03:23:06.288Z,17.50
2018-06-16T03:25:34.378Z,17.40
2018-06-16T03:28:01.997Z,17.40
2018-06-16T03:30:29.710Z,17.50
2018-06-16T03:32:57.449Z,17.50
2018-06-16T03:35:25.058Z,17.50
2018-06-16T03:37:52.671Z,17.50
2018-06-16T03:40:20.333Z,17.60
2018-06-16T03:42:47.933Z,17.80
2018-06-16T03:45:15.556Z,17.70
2018-06-16T03:47:43.229Z,17.60
2018-06-16T03:50:11.593Z,17.70
2018-06-16T03:52:39.511Z,17.60
2018-06-16T03:55:07.065Z,17.60
2018-06-16T03:57:34.761Z,17.70
2018-06-16T04:00:02.443Z,17.80
2018-06-16T04:02:30.157Z,17.90
2018-06-16T04:04:57.824Z,18.10
2018-06-16T04:09:53.100Z,17.90
2018-06-16T04:12:21.176Z,18.00
2018-06-16T04:14:48.746Z,18.00
2018-06-16T04:17:18.712Z,18.00
2018-06-16T04:19:47.348Z,18.10
2018-06-16T04:22:14.987Z,18.10
2018-06-16T04:24:42.858Z,18.10
2018-06-16T04:27:10.437Z,18.30
2018-06-16T04:29:38.297Z,18.20
2018-06-16T04:32:06.067Z,18.30
2018-06-16T04:34:34.118Z,18.40
2018-06-16T04:37:01.909Z,18.50
2018-06-16T04:39:29.534Z,18.60
2018-06-16T04:41:57.212Z,18.50
2018-06-16T04:44:25.410Z,18.50
2018-06-16T04:46:53.014Z,18.70
2018-06-16T04:49:20.630Z,18.70
2018-06-16T04:51:48.361Z,18.70
2018-06-16T04:54:15.997Z,18.70
2018-06-16T04:56:43.658Z,18.70
2018-06-16T04:59:11.229Z,18.70
2018-06-16T05:01:38.897Z,18.80
2018-06-16T05:04:06.525Z,18.80
2018-06-16T05:06:34.155Z,18.90
2018-06-16T05:09:01.777Z,19.20
2018-06-16T05:13:57.026Z,19.30
2018-06-16T05:16:24.638Z,19.30
2018-06-16T05:18:52.224Z,19.40
2018-06-16T05:21:19.800Z,19.40
2018-06-16T05:23:47.379Z,19.50
2018-06-16T05:26:14.948Z,19.30
2018-06-16T05:28:42.586Z,19.40
2018-06-16T05:31:10.174Z,19.30
2018-06-16T05:33:37.744Z,19.20
2018-06-16T05:36:05.385Z,19.40
2018-06-16T05:38:33.298Z,19.50
2018-06-16T05:41:00.965Z,19.40
2018-06-16T05:43:28.809Z,19.60
2018-06-16T05:45:56.359Z,19.80
2018-06-16T05:48:23.953Z,20.00
2018-06-16T05:53:19.235Z,20.10
2018-06-16T05:55:46.814Z,20.20
2018-06-16T05:58:14.746Z,20.40
2018-06-16T06:00:42.343Z,20.50
2018-06-16T06:03:09.955Z,20.50
2018-06-16T06:05:37.636Z,20.60
2018-06-16T06:08:05.264Z,20.70
2018-06-16T06:10:32.898Z,20.80
2018-06-16T06:13:01.258Z,20.90
2018-06-16T06:15:28.876Z,21.10
2018-06-16T06:17:56.474Z,21.20
2018-06-16T06:20:24.090Z,21.20
2018-06-16T06:22:51.920Z,21.00
2018-06-16T06:25:19.581Z,21.10
2018-06-16T06:27:47.234Z,20.90
2018-06-16T06:30:14.886Z,21.20
2018-06-16T06:32:42.485Z,21.60
2018-06-16T06:35:10.164Z,21.90
2018-06-16T06:37:37.877Z,22.10
2018-06-16T06:40:05.871Z,22.20
2018-06-16T06:42:33.529Z,22.10
2018-06-16T06:45:01.409Z,22.50
2018-06-16T06:47:29.040Z,22.60
2018-06-16T06:49:56.607Z,22.80
2018-06-16T06:52:24.205Z,22.80
2018-06-16T06:59:48.381Z,23.00
2018-06-16T07:02:15.954Z,23.30
2018-06-16T07:04:43.525Z,23.10
2018-06-16T07:07:11.308Z,23.40
2018-06-16T07:09:38.990Z,23.80
2018-06-16T07:12:06.575Z,23.40
2018-06-16T07:14:34.167Z,23.50
2018-06-16T07:17:01.751Z,23.90
2018-06-16T07:19:29.323Z,24.00
2018-06-16T07:21:56.932Z,24.30
2018-06-16T07:24:24.531Z,24.70
2018-06-16T07:29:19.860Z,24.30
2018-06-16T07:31:47.482Z,24.20
2018-06-16T07:34:15.066Z,24.30
2018-06-16T07:36:43.451Z,24.70
2018-06-16T07:39:11.069Z,24.80
2018-06-16T07:41:38.815Z,24.90
2018-06-16T07:44:06.473Z,24.20
2018-06-16T07:46:34.015Z,24.30
2018-06-16T07:49:01.840Z,24.20
2018-06-16T07:51:29.677Z,24.40
2018-06-16T07:53:57.313Z,24.50
2018-06-16T07:56:24.929Z,24.80
2018-06-16T07:58:52.519Z,24.60
2018-06-16T08:01:20.164Z,25.40
2018-06-16T08:03:47.818Z,26.30
2018-06-16T08:06:15.405Z,26.70
2018-06-16T08:11:10.699Z,26.80
2018-06-16T08:13:38.321Z,27.00
2018-06-16T08:16:05.961Z,26.60
2018-06-16T08:18:34.087Z,26.90
2018-06-16T08:21:01.692Z,27.20
2018-06-16T08:23:29.277Z,27.20
2018-06-16T08:25:57.015Z,27.20
2018-06-16T08:28:24.626Z,26.90
2018-06-16T08:30:52.246Z,27.00
2018-06-16T08:33:19.878Z,27.40
2018-06-16T08:35:47.494Z,26.90
2018-06-16T08:38:15.068Z,26.10
2018-06-16T08:40:42.608Z,26.60
2018-06-16T08:43:10.247Z,26.90
2018-06-16T08:45:37.868Z,27.20
2018-06-16T08:48:05.527Z,27.40
2018-06-16T08:50:33.150Z,27.40
2018-06-16T08:53:00.789Z,27.20
2018-06-16T08:55:28.508Z,26.70
2018-06-16T08:57:56.195Z,27.00
2018-06-16T09:00:24.115Z,27.60
2018-06-16T09:02:51.901Z,27.00
2018-06-16T09:05:19.517Z,27.10
2018-06-16T09:07:47.317Z,27.00
2018-06-16T09:10:14.996Z,26.00
2018-06-16T09:12:42.561Z,25.70
2018-06-16T09:15:10.274Z,26.50
2018-06-16T09:17:37.928Z,26.80
2018-06-16T09:20:05.671Z,27.20
2018-06-16T09:22:33.397Z,26.90
2018-06-16T09:25:00.988Z,26.20
2018-06-16T09:27:28.768Z,26.20
2018-06-16T09:29:56.383Z,26.00
2018-06-16T09:32:24.394Z,26.30
2018-06-16T09:34:52.026Z,26.60
2018-06-16T09:37:19.792Z,26.20
2018-06-16T09:39:47.369Z,25.70
2018-06-16T09:42:14.965Z,25.80
2018-06-16T09:44:42.642Z,25.90
2018-06-16T09:47:10.487Z,26.50
2018-06-16T09:49:38.799Z,27.00
2018-06-16T09:52:06.448Z,26.20
2018-06-16T09:54:34.039Z,26.10
2018-06-16T09:57:01.665Z,26.60
2018-06-16T09:59:29.287Z,27.10
2018-06-16T10:01:56.922Z,27.00
2018-06-16T10:04:24.555Z,27.50
2018-06-16T10:06:52.160Z,27.70
2018-06-16T10:09:19.880Z,27.90
2018-06-16T10:11:47.469Z,27.90
2018-06-16T10:14:15.137Z,27.70
2018-06-16T10:16:42.742Z,27.40
2018-06-16T10:19:10.392Z,27.90
2018-06-16T10:21:38.052Z,28.80
2018-06-16T10:24:05.903Z,29.50
2018-06-16T10:26:33.562Z,29.90
2018-06-16T10:29:01.266Z,30.30
2018-06-16T10:31:28.910Z,30.00
2018-06-16T10:33:56.586Z,30.10
2018-06-16T10:36:24.322Z,30.40
2018-06-16T10:38:51.933Z,30.30
2018-06-16T10:41:19.630Z,30.70
2018-06-16T10:43:47.279Z,29.60
2018-06-16T10:46:14.893Z,29.30
2018-06-16T10:48:42.501Z,29.80
2018-06-16T10:51:10.149Z,29.20
2018-06-16T10:53:38.073Z,28.50
2018-06-16T10:56:05.702Z,28.90
2018-06-16T10:58:33.515Z,29.00
2018-06-16T11:01:01.175Z,29.10
2018-06-16T11:03:28.941Z,28.80
2018-06-16T11:05:56.548Z,29.10
2018-06-16T11:08:24.168Z,28.60
2018-06-16T11:10:51.787Z,29.00
2018-06-16T11:13:19.794Z,29.30
2018-06-16T11:15:47.429Z,29.50
2018-06-16T11:18:15.063Z,29.40
2018-06-16T11:20:42.746Z,29.30
2018-06-16T11:23:10.470Z,29.10
2018-06-16T11:25:38.088Z,29.30
2018-06-16T11:28:05.747Z,29.60
2018-06-16T11:30:33.404Z,29.30
2018-06-16T11:33:01.000Z,29.00
2018-06-16T11:35:28.613Z,28.90
2018-06-16T11:37:56.222Z,28.60
2018-06-16T11:40:23.949Z,28.20
2018-06-16T11:42:51.603Z,27.90
2018-06-16T11:45:19.253Z,28.00
2018-06-16T11:47:46.891Z,28.40
2018-06-16T11:50:14.467Z,28.70
2018-06-16T11:52:42.097Z,28.00
2018-06-16T11:55:09.780Z,28.30
2018-06-16T11:57:37.425Z,28.60
2018-06-16T12:00:05.087Z,28.20
2018-06-16T12:02:32.751Z,27.70
2018-06-16T12:05:00.393Z,27.60
2018-06-16T12:07:28.114Z,27.50
2018-06-16T12:09:55.784Z,28.00
2018-06-16T12:12:23.386Z,28.00
2018-06-16T12:14:51.110Z,27.60
2018-06-16T12:17:18.773Z,27.30
2018-06-16T12:19:46.474Z,27.20
2018-06-16T12:22:14.172Z,27.50
2018-06-16T12:24:48.586Z,27.50
2018-06-16T12:27:16.250Z,27.50
2018-06-16T12:29:43.996Z,27.90
2018-06-16T12:32:11.603Z,28.00
2018-06-16T12:34:39.242Z,28.00
2018-06-16T12:37:06.904Z,28.10
2018-06-16T12:39:34.554Z,27.80
2018-06-16T12:42:02.188Z,27.60
2018-06-16T12:44:29.856Z,27.50
2018-06-16T12:46:57.976Z,28.40
2018-06-16T12:49:26.910Z,28.80
2018-06-16T12:51:54.821Z,29.50
2018-06-16T12:54:22.478Z,29.80
2018-06-16T12:56:50.196Z,30.00
2018-06-16T12:59:17.760Z,30.30
2018-06-16T13:01:45.398Z,30.60
2018-06-16T13:04:13.084Z,30.90
2018-06-16T13:06:40.773Z,31.90
2018-06-16T13:09:08.470Z,34.80
2018-06-16T13:11:36.140Z,36.50
2018-06-16T13:14:03.903Z,36.80
2018-06-16T13:16:31.716Z,36.40
2018-06-16T13:18:59.864Z,36.20
2018-06-16T13:21:27.745Z,36.20
2018-06-16T13:23:55.361Z,36.20
2018-06-16T13:26:22.950Z,36.10
2018-06-16T13:28:50.617Z,36.30
2018-06-16T13:31:18.236Z,36.20
2018-06-16T13:33:45.873Z,35.60
2018-06-16T13:36:13.490Z,35.40
2018-06-16T13:38:41.169Z,34.90
2018-06-16T13:41:08.790Z,34.20
2018-06-16T13:43:36.468Z,33.60
2018-06-16T13:46:04.226Z,33.00
2018-06-16T13:48:31.842Z,32.30
2018-06-16T13:50:59.475Z,31.80
2018-06-16T13:53:27.088Z,31.00
2018-06-16T13:55:55.256Z,30.70
2018-06-16T13:58:22.964Z,30.50
2018-06-16T14:00:50.534Z,30.70
2018-06-16T14:03:18.146Z,30.80
2018-06-16T14:05:45.766Z,30.90
2018-06-16T14:08:13.454Z,31.10
2018-06-16T14:13:08.734Z,31.20
2018-06-16T14:15:37.353Z,31.40
2018-06-16T14:18:05.481Z,31.70
2018-06-16T14:20:33.097Z,32.20
2018-06-16T14:23:00.965Z,32.10
2018-06-16T14:25:28.588Z,32.90
2018-06-16T14:27:56.342Z,33.60
2018-06-16T14:30:23.994Z,34.00
2018-06-16T14:32:51.969Z,35.00
2018-06-16T14:35:19.595Z,35.20
2018-06-16T14:37:47.323Z,37.00
2018-06-16T14:40:15.004Z,37.30
2018-06-16T14:42:42.571Z,40.50
2018-06-16T14:45:10.501Z,41.30
2018-06-16T14:47:38.101Z,43.60
2018-06-16T14:50:06.601Z,45.80
2018-06-16T14:52:34.238Z,46.30
2018-06-16T14:55:01.906Z,45.00
2018-06-16T14:57:29.590Z,43.60
2018-06-16T14:59:57.268Z,42.10
2018-06-16T15:02:24.916Z,40.30
2018-06-16T15:04:52.670Z,39.20
2018-06-16T15:07:20.325Z,40.10
2018-06-16T15:09:48.050Z,42.00
2018-06-16T15:12:15.750Z,43.90
2018-06-16T15:14:44.408Z,44.20
2018-06-16T15:17:12.000Z,41.50
2018-06-16T15:19:39.631Z,42.70
2018-06-16T15:22:07.362Z,43.70
2018-06-16T15:24:35.000Z,44.70
2018-06-16T15:27:02.876Z,43.20
2018-06-16T15:29:30.537Z,43.40
2018-06-16T15:34:25.823Z,43.70
2018-06-16T15:36:53.497Z,44.00
2018-06-16T15:39:21.148Z,46.00
2018-06-16T15:41:48.809Z,45.70
2018-06-16T15:44:16.491Z,46.90
2018-06-16T15:46:44.241Z,46.90
2018-06-16T15:49:12.873Z,46.90
2018-06-16T15:51:40.571Z,47.60
2018-06-16T15:54:08.446Z,47.30
2018-06-16T15:56:36.071Z,47.50
2018-06-16T15:59:03.715Z,46.70
2018-06-16T16:03:59.046Z,44.70
2018-06-16T16:06:26.868Z,43.00
2018-06-16T16:08:54.535Z,39.90
2018-06-16T16:11:22.110Z,39.10
2018-06-16T16:13:49.894Z,38.10
2018-06-16T16:16:17.519Z,37.40
2018-06-16T16:18:45.221Z,36.70
2018-06-16T16:21:12.860Z,36.50
2018-06-16T16:23:40.780Z,35.80
2018-06-16T16:26:08.430Z,35.00
2018-06-16T16:28:36.074Z,34.90
2018-06-16T16:31:03.742Z,34.50
2018-06-16T16:33:31.379Z,33.40
2018-06-16T16:35:59.001Z,33.40
2018-06-16T16:38:26.598Z,32.60
2018-06-16T16:40:54.177Z,33.40
2018-06-16T16:43:21.786Z,34.10
2018-06-16T16:45:49.421Z,35.90
2018-06-16T16:48:17.083Z,35.70
2018-06-16T16:50:44.873Z,35.00
2018-06-16T16:53:12.555Z,33.90
2018-06-16T16:55:40.113Z,33.00
2018-06-16T16:58:07.670Z,32.20
2018-06-16T17:00:35.229Z,31.60
2018-06-16T17:03:02.860Z,31.20
2018-06-16T17:05:30.410Z,30.60
2018-06-16T17:07:58.010Z,30.30
2018-06-16T17:10:30.053Z,30.00
2018-06-16T17:12:57.880Z,29.90
2018-06-16T17:15:25.514Z,29.90
2018-06-16T17:17:53.126Z,29.90
2018-06-16T17:22:48.794Z,29.60
2018-06-16T17:25:16.476Z,29.50
2018-06-16T17:27:44.186Z,29.50
2018-06-16T17:30:11.782Z,29.20
2018-06-16T17:32:39.462Z,28.80
2018-06-16T17:35:07.072Z,28.50
2018-06-16T17:37:34.710Z,28.30
2018-06-16T17:40:02.411Z,28.20
2018-06-16T17:42:30.092Z,28.10
2018-06-16T17:44:57.900Z,28.10
2018-06-16T17:47:25.766Z,27.90
2018-06-16T17:49:53.635Z,27.60
2018-06-16T17:52:21.382Z,27.60
2018-06-16T17:54:49.005Z,27.50
2018-06-16T17:57:16.813Z,27.30
2018-06-16T17:59:44.438Z,27.20
2018-06-16T18:02:12.015Z,27.10
2018-06-16T18:04:39.706Z,26.80
2018-06-16T18:07:07.364Z,26.70
2018-06-16T18:09:35.050Z,26.70
2018-06-16T18:12:02.887Z,26.60
2018-06-16T18:14:30.571Z,26.50
2018-06-16T18:16:58.240Z,26.30
2018-06-16T18:21:53.520Z,25.90
2018-06-16T18:24:21.150Z,25.60
2018-06-16T18:26:48.822Z,25.50
2018-06-16T18:29:16.490Z,25.40
2018-06-16T18:31:44.139Z,25.30
2018-06-16T18:34:11.813Z,25.10
2018-06-16T18:36:39.477Z,25.10
2018-06-16T18:39:08.586Z,24.90
2018-06-16T18:41:36.485Z,24.80
2018-06-16T18:44:04.280Z,24.60
2018-06-16T18:46:31.991Z,24.50
2018-06-16T18:48:59.641Z,24.40
2018-06-16T18:51:27.331Z,24.40
2018-06-16T18:53:54.925Z,24.30
2018-06-16T18:56:22.575Z,24.30
2018-06-16T18:58:50.291Z,24.10
2018-06-16T19:01:17.927Z,23.90
2018-06-16T19:03:45.885Z,23.90
2018-06-16T19:06:13.609Z,23.80
2018-06-16T19:08:41.274Z,23.70
2018-06-16T19:11:08.930Z,23.60
2018-06-16T19:13:37.645Z,23.60
2018-06-16T19:16:05.617Z,23.50
2018-06-16T19:18:33.293Z,23.40
2018-06-16T19:21:01.027Z,23.30
2018-06-16T19:23:28.758Z,23.20
2018-06-16T19:25:56.414Z,23.10
2018-06-16T19:28:24.104Z,23.00
2018-06-16T19:30:51.774Z,22.80
2018-06-16T19:33:19.522Z,22.80
2018-06-16T19:35:47.193Z,22.80
2018-06-16T19:38:14.938Z,22.70
2018-06-16T19:40:42.652Z,22.60
2018-06-16T19:43:10.450Z,22.50
2018-06-16T19:45:38.128Z,22.50
2018-06-16T19:48:05.913Z,22.40
2018-06-16T19:50:33.658Z,22.40
2018-06-16T19:53:01.318Z,22.20
2018-06-16T19:55:29.014Z,22.10
2018-06-16T19:57:56.648Z,21.90
2018-06-16T20:00:24.246Z,21.80
2018-06-16T20:02:51.849Z,21.80
2018-06-16T20:05:19.543Z,21.60
2018-06-16T20:10:15.435Z,21.60
2018-06-16T20:12:43.035Z,21.40
2018-06-16T20:15:10.685Z,21.30
2018-06-16T20:17:38.418Z,21.20
2018-06-16T20:20:06.957Z,21.20
2018-06-16T20:22:34.736Z,21.10
2018-06-16T20:25:02.355Z,21.10
2018-06-16T20:27:29.956Z,21.00
2018-06-16T20:29:57.656Z,21.00
2018-06-16T20:32:25.325Z,21.00
2018-06-16T20:34:52.970Z,20.90
2018-06-16T20:37:20.670Z,20.90
2018-06-16T20:39:48.528Z,20.80
2018-06-16T20:42:16.149Z,20.80
2018-06-16T20:44:44.506Z,20.70
2018-06-16T20:47:12.148Z,20.70
2018-06-16T20:49:39.830Z,20.60
2018-06-16T20:52:07.623Z,20.60
2018-06-16T20:54:35.258Z,20.60
2018-06-16T20:57:02.906Z,20.50
2018-06-16T20:59:30.580Z,20.40
2018-06-16T21:01:58.455Z,20.30
2018-06-16T21:04:26.080Z,20.20
2018-06-16T21:06:53.748Z,20.20
2018-06-16T21:09:21.395Z,20.10
2018-06-16T21:11:49.026Z,20.00
2018-06-16T21:14:17.594Z,20.00
2018-06-16T21:16:45.217Z,19.90
2018-06-16T21:19:12.863Z,19.80
2018-06-16T21:21:40.543Z,19.70
2018-06-16T21:24:08.175Z,19.60
2018-06-16T21:29:03.636Z,19.40
2018-06-16T21:31:31.244Z,19.40
2018-06-16T21:33:58.918Z,19.40
2018-06-16T21:36:26.544Z,19.30
2018-06-16T21:38:54.116Z,19.20
2018-06-16T21:41:21.736Z,19.10
2018-06-16T21:43:49.397Z,19.10
2018-06-16T21:46:18.039Z,19.10
2018-06-16T21:48:45.687Z,19.00
2018-06-16T21:51:14.127Z,19.00
2018-06-16T21:53:41.763Z,19.00
2018-06-16T21:56:09.406Z,19.00
2018-06-16T21:58:37.295Z,19.00
2018-06-16T22:01:05.162Z,19.10
2018-06-16T22:03:32.781Z,19.10
2018-06-16T22:06:01.507Z,19.10
2018-06-16T22:08:30.889Z,19.20
2018-06-16T22:10:59.251Z,19.10
2018-06-16T22:13:27.332Z,19.20
2018-06-16T22:15:54.952Z,19.10
2018-06-16T22:18:22.644Z,19.00
2018-06-16T22:20:50.267Z,19.10
2018-06-16T22:23:17.943Z,19.10
2018-06-16T22:25:45.620Z,19.00
2018-06-16T22:28:13.385Z,19.00
2018-06-16T22:30:41.064Z,19.00
2018-06-16T22:33:08.650Z,18.90
2018-06-16T22:35:36.353Z,18.90
2018-06-16T22:38:04.311Z,18.90
2018-06-16T22:40:32.007Z,18.80
2018-06-16T22:42:59.649Z,18.80
2018-06-16T22:45:27.239Z,18.80
2018-06-16T22:47:54.838Z,18.80
2018-06-16T22:50:22.449Z,18.70
2018-06-16T22:52:50.618Z,18.70
2018-06-16T22:55:18.263Z,18.70
2018-06-16T22:57:45.933Z,18.60
2018-06-16T23:00:20.627Z,18.60
2018-06-16T23:02:48.455Z,18.60
2018-06-16T23:05:16.183Z,18.60
2018-06-16T23:07:43.785Z,18.70
2018-06-16T23:10:11.432Z,18.80
2018-06-16T23:12:39.049Z,18.70
2018-06-16T23:15:06.701Z,18.60
2018-06-16T23:17:34.257Z,18.60
2018-06-16T23:20:02.094Z,18.50
2018-06-16T23:22:29.715Z,18.40
2018-06-16T23:24:57.352Z,18.40
2018-06-16T23:27:24.971Z,18.30
2018-06-16T23:29:52.616Z,18.30
2018-06-16T23:32:20.242Z,18.20
2018-06-16T23:34:47.830Z,18.30
2018-06-16T23:37:15.488Z,18.30
2018-06-16T23:39:43.124Z,18.10
2018-06-16T23:42:10.742Z,18.10
2018-06-16T23:44:38.439Z,18.10
2018-06-16T23:47:06.136Z,18.10
2018-06-16T23:49:33.811Z,18.10
2018-06-16T23:52:01.432Z,18.10
2018-06-16T23:54:29.329Z,18.10
2018-06-16T23:56:56.976Z,18.10
2018-06-16T23:59:24.773Z,18.10
